createdAt,value
2022-08-30T00:06:58.820Z,4.9
2022-08-30T00:14:31.099Z,5.0
2022-08-30T00:22:03.397Z,5.0
2022-08-30T00:29:35.757Z,4.6
2022-08-30T00:37:08.039Z,4.5
2022-08-30T00:44:40.319Z,6.3
2022-08-30T00:52:12.607Z,5.4
2022-08-30T00:59:44.899Z,4.4
2022-08-30T01:07:17.186Z,6.5
2022-08-30T01:14:49.506Z,6.9
2022-08-30T01:22:22.597Z,5.5
2022-08-30T01:29:54.916Z,6.5
2022-08-30T01:37:27.237Z,6.8
2022-08-30T01:44:59.519Z,8.7
2022-08-30T01:52:31.802Z,6.4
2022-08-30T02:00:04.101Z,6.8
2022-08-30T02:07:36.386Z,6.8
2022-08-30T02:15:08.673Z,6.9
2022-08-30T02:22:43.412Z,6.9
2022-08-30T02:30:21.905Z,7.8
2022-08-30T02:37:54.233Z,6.4
2022-08-30T02:45:26.520Z,6.1
2022-08-30T02:52:58.804Z,7.3
2022-08-30T03:00:31.087Z,6.3
2022-08-30T03:08:03.424Z,6.2
2022-08-30T03:15:35.726Z,7.5
2022-08-30T03:23:08.019Z,6.9
2022-08-30T03:30:40.341Z,6.0
2022-08-30T03:38:12.629Z,4.9
2022-08-30T03:45:44.983Z,6.0
2022-08-30T03:53:17.475Z,6.5
2022-08-30T04:00:50.039Z,8.5
2022-08-30T04:08:22.377Z,6.4
2022-08-30T04:15:54.652Z,6.9
2022-08-30T04:22:54.194Z,7.4
2022-08-30T04:23:41.492Z,6.8
2022-08-30T04:24:28.785Z,9.4
2022-08-30T04:25:16.116Z,6.9
2022-08-30T04:26:03.400Z,7.2
2022-08-30T04:26:50.678Z,7.7
2022-08-30T04:27:37.983Z,7.1
2022-08-30T04:28:25.273Z,8.2
2022-08-30T04:29:12.559Z,7.9
2022-08-30T04:29:59.837Z,8.7
2022-08-30T04:30:47.148Z,8.6
2022-08-30T04:31:34.496Z,8.7
2022-08-30T04:32:21.823Z,7.6
2022-08-30T04:33:09.231Z,8.9
2022-08-30T04:33:56.607Z,8.2
2022-08-30T04:34:43.893Z,9.9
2022-08-30T04:35:31.177Z,8.7
2022-08-30T04:36:18.452Z,9.1
2022-08-30T04:37:05.739Z,9.3
2022-08-30T04:37:57.279Z,6.7
2022-08-30T04:38:44.652Z,9.6
2022-08-30T04:39:31.932Z,14.3
2022-08-30T04:40:19.261Z,8.2
2022-08-30T04:41:06.625Z,13.1
2022-08-30T04:41:53.926Z,7.5
2022-08-30T04:42:41.207Z,8.2
2022-08-30T04:43:28.647Z,11.2
2022-08-30T04:44:19.095Z,9.2
2022-08-30T04:45:06.822Z,10.1
2022-08-30T04:45:54.345Z,13.1
2022-08-30T04:46:44.577Z,19.8
2022-08-30T04:47:32.164Z,20.2
2022-08-30T04:48:19.552Z,7.4
2022-08-30T04:49:06.878Z,10.5
2022-08-30T04:49:54.361Z,10.9
2022-08-30T04:50:41.732Z,10.0
2022-08-30T04:51:29.032Z,14.3
2022-08-30T04:52:16.312Z,13.1
2022-08-30T04:53:03.742Z,12.9
2022-08-30T04:53:51.020Z,10.8
2022-08-30T04:54:38.298Z,9.5
2022-08-30T04:55:25.738Z,13.0
2022-08-30T04:56:13.045Z,12.2
2022-08-30T04:57:00.358Z,9.6
2022-08-30T04:57:47.744Z,11.7
2022-08-30T04:58:35.032Z,10.5
2022-08-30T04:59:22.310Z,24.0
2022-08-30T05:00:09.708Z,11.6
2022-08-30T05:00:57.097Z,14.4
2022-08-30T05:01:45.280Z,23.8
2022-08-30T05:02:33.301Z,14.9
2022-08-30T05:03:20.619Z,10.2
2022-08-30T05:04:08.160Z,14.5
2022-08-30T05:04:55.442Z,12.3
2022-08-30T05:05:42.847Z,17.6
2022-08-30T05:06:30.146Z,20.2
2022-08-30T05:07:17.432Z,16.2
2022-08-30T05:08:04.855Z,41.9
2022-08-30T05:08:52.149Z,119.1
2022-08-30T05:09:39.527Z,77.4
2022-08-30T05:10:26.840Z,48.1
2022-08-30T05:11:14.150Z,31.1
2022-08-30T05:12:01.506Z,24.4
2022-08-30T05:12:48.862Z,16.9
2022-08-30T05:13:36.959Z,17.9
2022-08-30T05:14:24.427Z,11.0
2022-08-30T05:15:11.809Z,13.6
2022-08-30T05:15:59.256Z,17.5
2022-08-30T05:16:46.688Z,22.5
2022-08-30T05:17:34.141Z,15.2
2022-08-30T05:18:21.509Z,16.8
2022-08-30T05:19:08.869Z,18.3
2022-08-30T05:19:56.306Z,15.7
2022-08-30T05:20:43.666Z,16.7
2022-08-30T05:21:31.038Z,11.7
2022-08-30T05:22:18.449Z,23.0
2022-08-30T05:23:05.815Z,19.9
2022-08-30T05:23:53.266Z,16.9
2022-08-30T05:24:40.786Z,45.3
2022-08-30T05:25:28.155Z,57.0
2022-08-30T05:26:15.528Z,43.3
2022-08-30T05:27:02.950Z,38.1
2022-08-30T05:27:50.314Z,34.9
2022-08-30T05:28:37.696Z,27.6
2022-08-30T05:29:25.539Z,26.7
2022-08-30T05:30:13.112Z,30.1
2022-08-30T05:31:00.517Z,29.7
2022-08-30T05:31:47.970Z,23.5
2022-08-30T05:32:35.370Z,26.2
2022-08-30T05:33:22.727Z,21.0
2022-08-30T05:34:10.135Z,34.6
2022-08-30T05:34:57.514Z,29.9
2022-08-30T05:35:44.870Z,23.2
2022-08-30T05:36:32.229Z,25.7
2022-08-30T05:37:19.631Z,31.9
2022-08-30T05:38:06.997Z,27.1
2022-08-30T05:38:54.379Z,25.1
2022-08-30T05:39:50.778Z,29.6
2022-08-30T05:40:38.983Z,21.9
2022-08-30T05:41:28.450Z,22.1
2022-08-30T05:42:16.373Z,20.0
2022-08-30T05:43:04.260Z,14.2
2022-08-30T05:43:51.667Z,13.0
2022-08-30T05:44:39.147Z,18.3
2022-08-30T05:45:31.779Z,14.6
2022-08-30T05:46:19.336Z,16.0
2022-08-30T05:47:06.903Z,17.8
2022-08-30T05:47:54.250Z,19.7
2022-08-30T05:48:41.616Z,18.2
2022-08-30T05:49:28.991Z,20.2
2022-08-30T05:50:16.357Z,18.4
2022-08-30T05:51:03.746Z,17.6
2022-08-30T05:51:51.109Z,23.2
2022-08-30T05:52:38.947Z,24.0
2022-08-30T05:53:26.543Z,22.9
2022-08-30T05:54:13.909Z,22.6
2022-08-30T05:55:01.293Z,20.9
2022-08-30T05:55:48.660Z,15.6
2022-08-30T05:56:36.117Z,21.4
2022-08-30T05:57:23.475Z,18.3
2022-08-30T05:59:29.982Z,12.7
2022-08-30T06:00:17.332Z,15.3
2022-08-30T06:01:04.641Z,14.8
2022-08-30T06:01:51.954Z,16.1
2022-08-30T06:02:39.359Z,16.9
2022-08-30T06:03:27.119Z,20.5
2022-08-30T06:04:14.397Z,19.4
2022-08-30T06:05:01.816Z,25.4
2022-08-30T06:05:49.071Z,38.4
2022-08-30T06:06:36.968Z,30.8
2022-08-30T06:07:24.357Z,37.8
2022-08-30T06:08:11.771Z,56.4
2022-08-30T06:08:59.037Z,66.2
2022-08-30T06:09:46.312Z,53.3
2022-08-30T06:10:33.622Z,47.4
2022-08-30T06:11:20.882Z,66.0
2022-08-30T06:12:08.130Z,56.4
2022-08-30T06:12:55.575Z,44.7
2022-08-30T06:13:42.847Z,67.7
2022-08-30T06:14:30.094Z,49.1
2022-08-30T06:15:17.543Z,40.4
2022-08-30T06:16:04.852Z,41.7
2022-08-30T06:16:52.157Z,33.6
2022-08-30T06:17:39.549Z,31.9
2022-08-30T06:18:28.721Z,28.2
2022-08-30T06:19:16.199Z,27.8
2022-08-30T06:20:03.615Z,19.3
2022-08-30T06:20:50.971Z,30.7
2022-08-30T06:21:38.332Z,30.2
2022-08-30T06:22:25.727Z,30.8
2022-08-30T06:23:12.983Z,26.2
2022-08-30T06:24:00.250Z,27.3
2022-08-30T06:24:57.425Z,39.8
2022-08-30T06:25:44.886Z,31.2
2022-08-30T06:27:24.448Z,35.4
2022-08-30T06:28:11.736Z,39.7
2022-08-30T06:28:58.995Z,27.6
2022-08-30T06:29:46.257Z,28.4
2022-08-30T06:30:33.892Z,39.7
2022-08-30T06:31:21.262Z,36.9
2022-08-30T06:32:08.562Z,31.0
2022-08-30T06:32:55.937Z,36.4
2022-08-30T06:33:43.206Z,28.6
2022-08-30T06:34:30.447Z,38.2
2022-08-30T06:35:18.056Z,33.7
2022-08-30T06:36:05.966Z,28.2
2022-08-30T06:36:53.450Z,34.8
2022-08-30T06:37:40.880Z,26.8
2022-08-30T06:38:28.143Z,26.2
2022-08-30T06:39:15.408Z,25.4
2022-08-30T06:40:02.869Z,22.8
2022-08-30T06:40:50.171Z,22.3
2022-08-30T06:41:37.429Z,28.4
2022-08-30T06:42:24.850Z,25.5
2022-08-30T06:43:12.097Z,29.7
2022-08-30T06:43:59.350Z,27.2
2022-08-30T06:44:46.769Z,23.0
2022-08-30T06:45:34.251Z,31.9
2022-08-30T06:46:21.595Z,28.9
2022-08-30T06:47:08.936Z,32.8
2022-08-30T06:47:56.191Z,34.5
2022-08-30T06:48:46.372Z,24.4
2022-08-30T06:49:35.557Z,35.3
2022-08-30T06:50:25.779Z,51.1
2022-08-30T06:51:13.034Z,54.3
2022-08-30T06:52:01.370Z,74.5
2022-08-30T06:52:50.772Z,43.7
2022-08-30T06:53:38.113Z,34.5
2022-08-30T06:54:25.370Z,36.3
2022-08-30T06:55:12.618Z,43.9
2022-08-30T06:55:59.946Z,40.8
2022-08-30T06:56:58.108Z,43.2
2022-08-30T06:57:44.491Z,34.7
2022-08-30T06:58:31.876Z,44.2
2022-08-30T06:59:19.135Z,39.7
2022-08-30T07:00:06.503Z,28.7
2022-08-30T07:00:53.935Z,56.3
2022-08-30T07:01:41.337Z,54.6
2022-08-30T07:02:28.795Z,39.0
2022-08-30T07:03:16.251Z,34.8
2022-08-30T07:04:03.658Z,35.4
2022-08-30T07:04:51.038Z,31.1
2022-08-30T07:05:38.466Z,28.5
2022-08-30T07:06:25.834Z,23.0
2022-08-30T07:07:13.203Z,20.6
2022-08-30T07:08:00.857Z,21.5
2022-08-30T07:08:48.361Z,23.7
2022-08-30T07:09:36.615Z,23.6
2022-08-30T07:10:24.031Z,22.8
2022-08-30T07:11:11.454Z,21.2
2022-08-30T07:11:59.327Z,20.8
2022-08-30T07:12:46.692Z,19.1
2022-08-30T07:13:34.171Z,26.5
2022-08-30T07:14:21.567Z,21.3
2022-08-30T07:15:08.940Z,21.0
2022-08-30T07:15:56.395Z,15.0
2022-08-30T07:16:43.799Z,15.6
2022-08-30T07:17:34.504Z,17.9
2022-08-30T07:18:22.398Z,20.6
2022-08-30T07:19:18.600Z,16.8
2022-08-30T07:20:07.201Z,44.7
2022-08-30T07:20:54.611Z,66.4
2022-08-30T07:21:42.448Z,58.1
2022-08-30T07:22:29.837Z,53.3
2022-08-30T07:23:17.329Z,46.9
2022-08-30T07:24:05.008Z,40.7
2022-08-30T07:24:56.151Z,28.9
2022-08-30T07:25:43.592Z,27.2
2022-08-30T07:26:30.962Z,29.7
2022-08-30T07:27:18.644Z,27.2
2022-08-30T07:28:06.127Z,18.0
2022-08-30T07:28:56.283Z,26.8
2022-08-30T07:29:43.840Z,22.7
2022-08-30T07:30:31.270Z,20.6
2022-08-30T07:31:18.815Z,23.7
2022-08-30T07:32:07.328Z,23.8
2022-08-30T07:32:54.830Z,36.2
2022-08-30T07:33:42.208Z,28.3
2022-08-30T07:34:29.537Z,23.2
2022-08-30T07:35:17.033Z,42.4
2022-08-30T07:36:04.365Z,47.2
2022-08-30T07:36:51.918Z,54.9
2022-08-30T07:37:39.268Z,48.7
2022-08-30T07:38:26.602Z,42.0
2022-08-30T07:39:17.541Z,28.6
2022-08-30T07:40:04.979Z,29.7
2022-08-30T07:40:52.356Z,22.6
2022-08-30T07:41:41.130Z,25.9
2022-08-30T07:42:28.592Z,23.5
2022-08-30T07:43:16.044Z,22.6
2022-08-30T07:44:03.536Z,20.9
2022-08-30T07:44:54.708Z,24.0
2022-08-30T07:45:43.877Z,21.2
2022-08-30T07:46:31.377Z,21.3
2022-08-30T07:47:18.784Z,27.2
2022-08-30T07:48:06.130Z,19.8
2022-08-30T07:48:53.531Z,20.4
2022-08-30T07:49:40.873Z,17.4
2022-08-30T07:50:28.211Z,34.9
2022-08-30T07:51:15.643Z,47.5
2022-08-30T07:52:03.356Z,57.1
2022-08-30T07:52:50.694Z,65.9
2022-08-30T07:53:38.033Z,56.3
2022-08-30T07:54:26.585Z,53.6
2022-08-30T07:55:14.020Z,43.5
2022-08-30T07:56:01.373Z,42.3
2022-08-30T07:56:52.139Z,32.5
2022-08-30T07:57:39.565Z,32.8
2022-08-30T07:58:26.893Z,28.1
2022-08-30T07:59:14.250Z,28.2
2022-08-30T08:00:01.645Z,29.3
2022-08-30T08:00:49.011Z,32.1
2022-08-30T08:01:36.381Z,35.3
2022-08-30T08:02:23.819Z,34.9
2022-08-30T08:03:11.191Z,35.8
2022-08-30T08:03:58.530Z,42.7
2022-08-30T08:04:45.932Z,22.6
2022-08-30T08:05:33.256Z,34.0
2022-08-30T08:06:20.587Z,25.5
2022-08-30T08:07:08.009Z,24.6
2022-08-30T08:07:55.359Z,21.8
2022-08-30T08:08:42.702Z,24.9
2022-08-30T08:09:30.091Z,25.0
2022-08-30T08:10:17.437Z,27.7
2022-08-30T08:11:04.765Z,32.6
2022-08-30T08:11:52.190Z,25.2
2022-08-30T08:12:39.528Z,24.6
2022-08-30T08:13:27.905Z,24.1
2022-08-30T08:15:08.924Z,18.1
2022-08-30T08:15:56.540Z,21.2
2022-08-30T08:16:44.033Z,32.9
2022-08-30T08:17:31.382Z,18.3
2022-08-30T08:18:18.849Z,31.3
2022-08-30T08:19:06.230Z,39.5
2022-08-30T08:19:53.664Z,30.4
2022-08-30T08:20:40.996Z,28.8
2022-08-30T08:21:28.395Z,34.9
2022-08-30T08:22:21.119Z,21.5
2022-08-30T08:23:08.793Z,24.7
2022-08-30T08:23:56.206Z,19.8
2022-08-30T08:24:43.537Z,22.6
2022-08-30T08:25:30.886Z,17.8
2022-08-30T08:26:18.304Z,25.4
2022-08-30T08:27:05.646Z,18.1
2022-08-30T08:27:52.968Z,18.5
2022-08-30T08:28:40.434Z,19.7
2022-08-30T08:29:27.778Z,15.5
2022-08-30T08:30:15.109Z,19.5
2022-08-30T08:31:02.543Z,23.5
2022-08-30T08:31:49.910Z,18.8
2022-08-30T08:32:37.323Z,18.4
2022-08-30T08:33:24.681Z,30.3
2022-08-30T08:34:12.012Z,21.9
2022-08-30T08:34:59.342Z,23.9
2022-08-30T08:35:46.768Z,26.5
2022-08-30T08:36:34.109Z,24.5
2022-08-30T08:37:21.440Z,27.7
2022-08-30T08:38:14.111Z,22.6
2022-08-30T08:39:01.557Z,22.1
2022-08-30T08:39:48.905Z,27.7
2022-08-30T08:40:36.292Z,18.0
2022-08-30T08:41:23.691Z,21.2
2022-08-30T08:42:11.015Z,23.0
2022-08-30T08:42:58.358Z,25.8
2022-08-30T08:43:45.758Z,27.9
2022-08-30T08:44:34.761Z,17.8
2022-08-30T08:46:11.856Z,19.2
2022-08-30T08:46:59.250Z,21.8
2022-08-30T08:47:46.686Z,22.1
2022-08-30T08:48:51.858Z,24.9
2022-08-30T08:49:32.693Z,23.4
2022-08-30T08:50:20.363Z,16.5
2022-08-30T08:51:07.973Z,19.9
2022-08-30T08:51:55.319Z,21.8
2022-08-30T08:52:42.641Z,20.1
2022-08-30T08:53:45.600Z,16.5
2022-08-30T08:54:27.404Z,19.1
2022-08-30T08:55:14.784Z,18.8
2022-08-30T08:56:02.170Z,13.8
2022-08-30T08:56:49.514Z,17.5
2022-08-30T08:57:36.896Z,19.3
2022-08-30T08:58:24.224Z,19.8
2022-08-30T08:59:11.606Z,21.4
2022-08-30T08:59:58.952Z,16.9
2022-08-30T09:00:46.280Z,16.6
2022-08-30T09:01:33.650Z,15.5
2022-08-30T09:02:21.001Z,15.6
2022-08-30T09:03:08.322Z,15.2
2022-08-30T09:03:56.472Z,17.7
2022-08-30T09:04:43.858Z,16.7
2022-08-30T09:05:31.220Z,19.3
2022-08-30T09:06:18.560Z,21.9
2022-08-30T09:07:05.965Z,37.2
2022-08-30T09:07:53.323Z,34.7
2022-08-30T09:08:40.881Z,28.8
2022-08-30T09:09:28.321Z,29.6
2022-08-30T09:10:18.278Z,26.5
2022-08-30T09:11:07.770Z,30.1
2022-08-30T09:11:55.191Z,26.3
2022-08-30T09:12:42.527Z,28.3
2022-08-30T09:13:29.865Z,24.9
2022-08-30T09:14:18.423Z,24.9
2022-08-30T09:15:05.781Z,17.4
2022-08-30T09:15:55.125Z,21.2
2022-08-30T09:16:42.678Z,17.7
2022-08-30T09:17:30.076Z,20.0
2022-08-30T09:18:19.669Z,19.6
2022-08-30T09:19:07.322Z,17.7
2022-08-30T09:19:55.962Z,15.7
2022-08-30T09:20:43.306Z,19.6
2022-08-30T09:21:31.239Z,15.9
2022-08-30T09:22:18.539Z,15.0
2022-08-30T09:23:05.905Z,14.5
2022-08-30T09:23:55.419Z,15.4
2022-08-30T09:24:42.815Z,17.9
2022-08-30T09:25:30.232Z,24.4
2022-08-30T09:26:17.559Z,13.6
2022-08-30T09:27:04.883Z,14.3
2022-08-30T09:27:52.221Z,14.1
2022-08-30T09:28:39.912Z,13.3
2022-08-30T09:29:27.341Z,20.7
2022-08-30T09:30:15.119Z,17.4
2022-08-30T09:31:02.686Z,23.9
2022-08-30T09:31:52.959Z,15.4
2022-08-30T09:32:48.324Z,16.7
2022-08-30T09:33:35.772Z,17.0
2022-08-30T09:34:23.096Z,15.9
2022-08-30T09:35:10.409Z,13.6
2022-08-30T09:35:57.834Z,14.9
2022-08-30T09:36:45.162Z,14.2
2022-08-30T09:37:32.495Z,16.3
2022-08-30T09:38:19.901Z,13.9
2022-08-30T09:39:07.232Z,16.6
2022-08-30T09:39:54.709Z,20.9
2022-08-30T09:40:42.624Z,15.3
2022-08-30T09:41:30.238Z,15.3
2022-08-30T09:42:18.132Z,23.1
2022-08-30T09:43:05.507Z,13.4
2022-08-30T09:43:53.093Z,16.9
2022-08-30T09:44:40.409Z,15.4
2022-08-30T09:45:27.914Z,17.8
2022-08-30T09:46:16.475Z,14.5
2022-08-30T09:47:03.977Z,15.8
2022-08-30T09:47:51.532Z,15.1
2022-08-30T09:48:38.885Z,13.7
2022-08-30T09:49:26.224Z,14.2
2022-08-30T09:50:13.541Z,13.1
2022-08-30T09:51:00.861Z,15.8
2022-08-30T09:51:48.222Z,12.6
2022-08-30T09:52:35.568Z,13.6
2022-08-30T09:53:23.651Z,15.0
2022-08-30T09:54:18.881Z,15.3
2022-08-30T09:55:06.336Z,13.5
2022-08-30T09:55:53.783Z,14.1
2022-08-30T09:56:41.092Z,13.9
2022-08-30T09:57:33.720Z,14.7
2022-08-30T09:58:21.668Z,15.6
2022-08-30T09:59:09.067Z,12.7
2022-08-30T09:59:56.549Z,15.1
2022-08-30T10:00:43.862Z,14.2
2022-08-30T10:01:31.288Z,13.2
2022-08-30T10:02:18.676Z,13.0
2022-08-30T10:03:06.443Z,14.7
2022-08-30T10:03:53.789Z,13.4
2022-08-30T10:04:41.157Z,13.7
2022-08-30T10:05:28.487Z,14.7
2022-08-30T10:06:15.822Z,13.2
2022-08-30T10:07:03.278Z,14.6
2022-08-30T10:07:50.593Z,13.4
2022-08-30T10:08:41.057Z,21.8
2022-08-30T10:09:31.077Z,13.3
2022-08-30T10:10:18.518Z,12.4
2022-08-30T10:11:05.843Z,12.6
2022-08-30T10:11:53.160Z,12.3
2022-08-30T10:12:40.585Z,11.7
2022-08-30T10:13:27.977Z,13.6
2022-08-30T10:14:15.298Z,14.7
2022-08-30T10:15:02.725Z,14.7
2022-08-30T10:22:35.053Z,12.4
2022-08-30T10:30:07.378Z,13.4
2022-08-30T10:37:39.698Z,12.5
2022-08-30T10:45:12.196Z,12.7
2022-08-30T10:52:44.529Z,13.3
2022-08-30T10:58:16.214Z,13.1
2022-08-30T10:59:03.550Z,11.3
2022-08-30T10:59:51.963Z,11.1
2022-08-30T11:00:39.565Z,11.6
2022-08-30T11:01:29.181Z,12.6
2022-08-30T11:02:17.591Z,9.5
2022-08-30T11:03:04.990Z,15.9
2022-08-30T11:03:52.321Z,13.3
2022-08-30T11:04:39.849Z,10.6
2022-08-30T11:05:32.872Z,11.8
2022-08-30T11:06:20.306Z,10.9
2022-08-30T11:07:09.950Z,12.2
2022-08-30T11:07:57.537Z,20.5
2022-08-30T11:08:45.133Z,28.3
2022-08-30T11:09:33.059Z,40.1
2022-08-30T11:10:23.385Z,28.8
2022-08-30T11:11:13.146Z,44.9
2022-08-30T11:12:00.498Z,46.8
2022-08-30T11:12:47.821Z,57.3
2022-08-30T11:13:35.160Z,53.8
2022-08-30T11:14:25.344Z,43.9
2022-08-30T11:15:12.995Z,47.0
2022-08-30T11:16:00.843Z,56.3
2022-08-30T11:16:48.552Z,38.8
2022-08-30T11:17:36.056Z,39.6
2022-08-30T11:18:24.554Z,37.0
2022-08-30T11:19:12.436Z,44.9
2022-08-30T11:19:59.934Z,26.8
2022-08-30T11:20:47.261Z,27.0
2022-08-30T11:21:34.627Z,31.3
2022-08-30T11:22:22.193Z,28.3
2022-08-30T11:23:10.075Z,26.0
2022-08-30T11:23:57.458Z,25.7
2022-08-30T11:24:45.082Z,23.2
2022-08-30T11:25:32.477Z,33.5
2022-08-30T11:26:20.407Z,37.7
2022-08-30T11:27:10.363Z,44.3
2022-08-30T11:27:57.721Z,45.3
2022-08-30T11:28:45.225Z,55.8
2022-08-30T11:29:32.581Z,54.4
2022-08-30T11:30:20.008Z,41.0
2022-08-30T11:31:07.378Z,33.1
2022-08-30T11:31:54.716Z,31.9
2022-08-30T11:32:42.161Z,35.1
2022-08-30T11:33:31.104Z,30.9
2022-08-30T11:34:18.442Z,38.6
2022-08-30T11:35:05.780Z,51.1
2022-08-30T11:35:58.672Z,57.8
2022-08-30T11:36:46.367Z,48.0
2022-08-30T11:37:34.382Z,52.7
2022-08-30T11:38:21.961Z,48.9
2022-08-30T11:39:09.306Z,36.7
2022-08-30T11:39:56.657Z,33.4
2022-08-30T11:40:44.018Z,29.7
2022-08-30T11:41:31.621Z,23.6
2022-08-30T11:42:18.965Z,22.6
2022-08-30T11:43:06.323Z,26.0
2022-08-30T11:43:53.650Z,31.4
2022-08-30T11:44:40.989Z,29.4
2022-08-30T11:45:28.622Z,33.8
2022-08-30T11:46:16.316Z,37.8
2022-08-30T11:47:05.047Z,43.1
2022-08-30T11:47:52.821Z,59.2
2022-08-30T11:48:40.323Z,55.5
2022-08-30T11:49:37.637Z,52.4
2022-08-30T11:50:25.057Z,52.9
2022-08-30T11:51:13.746Z,50.6
2022-08-30T11:52:58.428Z,41.9
2022-08-30T11:53:46.115Z,39.8
2022-08-30T11:54:34.293Z,33.7
2022-08-30T11:55:22.956Z,21.0
2022-08-30T11:56:10.333Z,27.4
2022-08-30T11:56:57.668Z,25.5
2022-08-30T11:57:45.037Z,33.8
2022-08-30T11:58:33.221Z,27.9
2022-08-30T11:59:20.659Z,24.5
2022-08-30T12:00:09.902Z,21.1
2022-08-30T12:00:57.230Z,24.7
2022-08-30T12:01:50.574Z,29.1
2022-08-30T12:02:39.570Z,31.0
2022-08-30T12:03:27.100Z,43.2
2022-08-30T12:04:15.837Z,47.7
2022-08-30T12:05:03.189Z,46.5
2022-08-30T12:05:54.112Z,58.5
2022-08-30T12:06:41.527Z,49.8
2022-08-30T12:07:30.453Z,34.8
2022-08-30T12:08:24.258Z,45.4
2022-08-30T12:09:15.424Z,34.0
2022-08-30T12:10:04.044Z,31.0
2022-08-30T12:10:51.403Z,27.1
2022-08-30T12:11:38.742Z,28.6
2022-08-30T12:12:26.132Z,41.8
2022-08-30T12:13:13.756Z,51.8
2022-08-30T12:14:01.565Z,55.2
2022-08-30T12:14:49.260Z,57.5
2022-08-30T12:15:36.699Z,43.1
2022-08-30T12:16:25.059Z,49.3
2022-08-30T12:17:12.424Z,43.4
2022-08-30T12:17:59.749Z,29.5
2022-08-30T12:19:36.642Z,33.5
2022-08-30T12:20:29.181Z,23.3
2022-08-30T12:21:16.583Z,24.2
2022-08-30T12:22:05.481Z,18.3
2022-08-30T12:22:52.927Z,23.1
2022-08-30T12:23:44.305Z,24.8
2022-08-30T12:24:32.157Z,19.5
2022-08-30T12:25:21.484Z,25.0
2022-08-30T12:26:09.270Z,26.3
2022-08-30T12:26:58.393Z,17.5
2022-08-30T12:27:45.724Z,25.7
2022-08-30T12:29:22.384Z,21.8
2022-08-30T12:30:11.752Z,21.0
2022-08-30T12:31:01.074Z,18.2
2022-08-30T12:31:48.507Z,20.6
2022-08-30T12:32:35.901Z,17.5
2022-08-30T12:33:23.654Z,25.6
2022-08-30T12:34:17.043Z,18.9
2022-08-30T12:35:06.567Z,16.0
2022-08-30T12:35:53.887Z,17.2
2022-08-30T12:36:41.945Z,19.6
2022-08-30T12:37:29.252Z,13.3
2022-08-30T12:38:16.666Z,11.3
2022-08-30T12:39:05.675Z,12.0
2022-08-30T12:39:53.849Z,22.3
2022-08-30T12:40:41.333Z,19.4
2022-08-30T12:41:28.733Z,18.0
2022-08-30T12:42:17.741Z,19.2
2022-08-30T12:43:05.302Z,18.5
2022-08-30T12:43:52.737Z,24.2
2022-08-30T12:44:40.257Z,16.3
2022-08-30T12:45:27.614Z,16.6
2022-08-30T12:46:15.582Z,13.9
2022-08-30T12:47:03.131Z,24.5
2022-08-30T12:47:51.016Z,15.5
2022-08-30T12:48:38.402Z,17.4
2022-08-30T12:49:27.038Z,13.2
2022-08-30T12:50:15.329Z,13.3
2022-08-30T12:51:04.021Z,10.6
2022-08-30T12:51:51.328Z,11.5
2022-08-30T12:52:38.650Z,10.6
2022-08-30T12:53:25.960Z,18.1
2022-08-30T12:54:13.320Z,13.8
2022-08-30T12:55:00.957Z,11.8
2022-08-30T12:55:49.143Z,11.3
2022-08-30T12:56:49.448Z,11.2
2022-08-30T12:57:35.411Z,10.5
2022-08-30T12:58:22.853Z,15.6
2022-08-30T12:59:10.200Z,20.3
2022-08-30T13:00:01.709Z,16.6
2022-08-30T13:00:49.901Z,25.7
2022-08-30T13:01:37.944Z,27.8
2022-08-30T13:02:25.359Z,18.6
2022-08-30T13:03:23.202Z,20.3
2022-08-30T13:04:10.581Z,25.1
2022-08-30T13:04:57.935Z,21.0
2022-08-30T13:05:48.144Z,18.8
2022-08-30T13:06:35.978Z,16.1
2022-08-30T13:07:23.303Z,23.4
2022-08-30T13:08:10.620Z,17.1
2022-08-30T13:08:58.944Z,22.0
2022-08-30T13:09:46.277Z,12.7
2022-08-30T13:10:33.627Z,12.2
2022-08-30T13:11:20.967Z,15.5
2022-08-30T13:12:08.735Z,12.0
2022-08-30T13:12:56.095Z,10.7
2022-08-30T13:13:44.194Z,11.7
2022-08-30T13:14:31.959Z,13.4
2022-08-30T13:15:20.074Z,13.5
2022-08-30T13:16:07.489Z,19.8
2022-08-30T13:16:54.916Z,23.0
2022-08-30T13:17:42.302Z,17.5
2022-08-30T13:18:29.738Z,21.9
2022-08-30T13:19:17.066Z,14.5
2022-08-30T13:20:04.543Z,21.9
2022-08-30T13:20:52.064Z,17.5
2022-08-30T13:21:39.393Z,17.2
2022-08-30T13:22:27.200Z,14.3
2022-08-30T13:23:14.512Z,15.3
2022-08-30T13:24:02.382Z,17.3
2022-08-30T13:24:49.669Z,12.6
2022-08-30T13:25:37.359Z,18.2
2022-08-30T13:26:24.713Z,13.0
2022-08-30T13:27:14.277Z,10.6
2022-08-30T13:28:03.316Z,9.2
2022-08-30T13:28:50.657Z,10.3
2022-08-30T13:29:37.971Z,9.7
2022-08-30T13:30:25.809Z,11.4
2022-08-30T13:31:13.282Z,10.7
2022-08-30T13:32:00.919Z,14.3
2022-08-30T13:32:49.184Z,10.7
2022-08-30T13:33:36.502Z,10.7
2022-08-30T13:34:23.822Z,23.2
2022-08-30T13:35:11.337Z,16.9
2022-08-30T13:35:58.865Z,16.2
2022-08-30T13:36:46.206Z,20.9
2022-08-30T13:37:50.813Z,18.4
2022-08-30T13:38:31.331Z,12.4
2022-08-30T13:39:21.784Z,14.5
2022-08-30T13:40:09.369Z,13.6
2022-08-30T13:40:56.745Z,13.6
2022-08-30T13:41:44.077Z,14.2
2022-08-30T13:42:32.025Z,13.2
2022-08-30T13:43:19.686Z,13.8
2022-08-30T13:44:12.102Z,14.3
2022-08-30T13:45:00.195Z,12.9
2022-08-30T13:45:47.573Z,13.0
2022-08-30T13:46:34.957Z,13.2
2022-08-30T13:47:37.862Z,16.8
2022-08-30T13:48:24.911Z,13.3
2022-08-30T13:50:09.944Z,9.7
2022-08-30T13:50:57.370Z,24.1
2022-08-30T13:52:03.430Z,25.2
2022-08-30T13:52:42.106Z,18.8
2022-08-30T13:54:26.812Z,30.4
2022-08-30T13:55:14.493Z,18.6
2022-08-30T13:56:02.754Z,15.4
2022-08-30T13:56:50.176Z,17.8
2022-08-30T13:57:54.487Z,24.4
2022-08-30T13:58:35.483Z,11.9
2022-08-30T13:59:22.897Z,13.6
2022-08-30T14:00:10.299Z,17.4
2022-08-30T14:00:59.900Z,14.5
2022-08-30T14:02:50.144Z,13.8
2022-08-30T14:04:13.263Z,12.9
2022-08-30T14:04:39.000Z,11.0
2022-08-30T14:06:33.577Z,19.6
2022-08-30T14:07:21.510Z,9.7
2022-08-30T14:08:44.416Z,14.2
2022-08-30T14:09:06.653Z,24.1
2022-08-30T14:09:54.277Z,23.4
2022-08-30T14:10:51.481Z,18.1
2022-08-30T14:11:38.891Z,24.4
2022-08-30T14:13:24.131Z,19.3
2022-08-30T14:14:15.106Z,21.2
2022-08-30T14:15:04.643Z,13.8
2022-08-30T14:16:26.615Z,17.8
2022-08-30T14:16:51.115Z,15.4
2022-08-30T14:17:38.501Z,15.9
2022-08-30T14:18:25.834Z,19.2
2022-08-30T14:19:13.149Z,14.0
2022-08-30T14:20:00.568Z,13.7
2022-08-30T14:20:47.890Z,11.4
2022-08-30T14:21:35.294Z,13.3
2022-08-30T14:22:22.786Z,18.5
2022-08-30T14:23:10.365Z,12.4
2022-08-30T14:23:58.019Z,11.0
2022-08-30T14:24:45.353Z,13.8
2022-08-30T14:25:32.901Z,25.6
2022-08-30T14:26:20.227Z,15.6
2022-08-30T14:27:07.666Z,17.2
2022-08-30T14:27:54.977Z,13.1
2022-08-30T14:28:42.284Z,16.5
2022-08-30T14:29:30.260Z,11.8
2022-08-30T14:30:21.110Z,10.9
2022-08-30T14:31:08.641Z,11.1
2022-08-30T14:31:56.625Z,12.7
2022-08-30T14:32:47.024Z,12.0
2022-08-30T14:33:34.872Z,12.7
2022-08-30T14:34:22.402Z,10.7
2022-08-30T14:35:09.737Z,12.8
2022-08-30T14:35:57.935Z,11.3
2022-08-30T14:36:45.345Z,11.3
2022-08-30T14:37:32.671Z,18.2
2022-08-30T14:38:19.984Z,10.7
2022-08-30T14:39:08.568Z,9.5
2022-08-30T14:39:56.342Z,8.6
2022-08-30T14:40:43.795Z,11.2
2022-08-30T14:41:31.134Z,8.8
2022-08-30T14:42:19.862Z,10.1
2022-08-30T14:43:07.391Z,11.2
2022-08-30T14:43:54.713Z,6.9
2022-08-30T14:44:55.613Z,8.5
2022-08-30T14:45:39.329Z,9.1
2022-08-30T14:46:27.284Z,10.9
2022-08-30T14:47:14.753Z,12.2
2022-08-30T14:48:02.067Z,10.5
2022-08-30T14:48:53.474Z,9.2
2022-08-30T14:49:40.860Z,8.8
2022-08-30T14:50:29.760Z,12.2
2022-08-30T14:51:17.159Z,8.0
2022-08-30T14:52:04.550Z,9.1
2022-08-30T14:52:51.865Z,8.7
2022-08-30T14:53:39.209Z,13.9
2022-08-30T14:54:26.916Z,9.2
2022-08-30T14:55:14.230Z,7.8
2022-08-30T14:56:01.545Z,10.7
2022-08-30T14:56:48.862Z,7.7
2022-08-30T14:57:36.180Z,11.0
2022-08-30T14:58:25.570Z,13.7
2022-08-30T14:59:13.251Z,13.1
2022-08-30T15:00:00.878Z,9.9
2022-08-30T15:00:48.220Z,8.8
2022-08-30T15:01:37.206Z,10.0
2022-08-30T15:03:14.586Z,16.3
2022-08-30T15:04:02.014Z,10.0
2022-08-30T15:04:49.543Z,9.1
2022-08-30T15:05:37.071Z,9.4
2022-08-30T15:06:26.403Z,8.6
2022-08-30T15:07:14.125Z,7.4
2022-08-30T15:08:01.436Z,8.2
2022-08-30T15:08:49.725Z,7.4
2022-08-30T15:09:37.200Z,6.9
2022-08-30T15:11:13.962Z,11.5
2022-08-30T15:12:01.363Z,19.3
2022-08-30T15:12:49.877Z,6.6
2022-08-30T15:13:37.217Z,8.2
2022-08-30T15:14:24.672Z,7.5
2022-08-30T15:15:12.056Z,8.5
2022-08-30T15:22:46.147Z,13.8
2022-08-30T15:30:20.223Z,8.2
2022-08-30T15:45:25.343Z,7.0
2022-08-30T15:52:57.653Z,11.1
2022-08-30T16:00:30.034Z,11.7
2022-08-30T16:08:02.661Z,8.7
2022-08-30T16:15:34.985Z,9.2
2022-08-30T16:23:07.310Z,9.9
2022-08-30T16:30:39.617Z,7.4
2022-08-30T16:38:12.073Z,7.8
2022-08-30T16:45:44.401Z,7.7
2022-08-30T16:53:18.103Z,6.7
2022-08-30T17:00:51.141Z,6.9
2022-08-30T17:08:24.145Z,7.2
2022-08-30T17:15:56.517Z,7.1
2022-08-30T17:23:29.052Z,6.1
2022-08-30T17:31:02.375Z,6.0
2022-08-30T17:38:34.865Z,5.2